Time;durP1;ratioP1;P1;durP2;ratioP2;P2;SDS_P1;SDS_P2;PMS_P1;PMS_P2;Temp;Humidity;BMP_temperature;BMP_pressure;BME280_temperature;BME280_humidity;BME280_pressure;Samples;Min_cycle;Max_cycle;Signal;HPM_P1;HPM_P2
2023/12/14 00:01:41;;;;;;;56.25;3.00;;;;;;;20.02;59.72;98193.66;7311127;19;130268;-36
2023/12/14 00:04:07;;;;;;;57.85;3.03;;;;;;;20.18;58.71;98193.72;7311478;19;130552;-36
2023/12/14 00:06:32;;;;;;;94.45;4.22;;;;;;;20.29;58.42;98212.47;7309700;19;129019;-37
2023/12/14 00:08:58;;;;;;;117.40;4.93;;;;;;;20.40;58.59;98212.09;7309582;19;129044;-36
2023/12/14 00:11:23;;;;;;;83.90;3.95;;;;;;;20.47;57.63;98200.03;7310156;19;130749;-37
2023/12/14 00:13:48;;;;;;;55.45;2.85;;;;;;;20.61;57.74;98212.38;7308602;19;130513;-37
2023/12/14 00:16:14;;;;;;;61.33;3.25;;;;;;;20.70;57.53;98210.56;7309179;19;128950;-36
2023/12/14 00:18:39;;;;;;;92.97;4.10;;;;;;;20.73;56.83;98215.47;7308821;19;129535;-37
2023/12/14 00:21:05;;;;;;;72.00;3.47;;;;;;;20.76;57.40;98219.56;7310138;19;130165;-37
2023/12/14 00:23:30;;;;;;;73.68;3.58;;;;;;;20.86;57.25;98218.34;7308953;19;130468;-37
2023/12/14 00:25:56;;;;;;;77.00;3.38;;;;;;;20.85;56.73;98219.34;7310134;19;129045;-39
2023/12/14 00:28:22;;;;;;;110.68;4.65;;;;;;;20.79;56.88;98220.03;7309822;19;128963;-37
2023/12/14 00:30:47;;;;;;;86.20;4.20;;;;;;;20.75;57.28;98218.72;7309287;19;131334;-36
2023/12/14 00:33:13;;;;;;;61.65;2.97;;;;;;;20.79;56.83;98220.03;7308284;19;131232;-36
2023/12/14 00:35:38;;;;;;;114.25;5.07;;;;;;;20.75;57.14;98231.78;7308611;19;130896;-38
2023/12/14 00:38:03;;;;;;;132.63;5.50;;;;;;;20.71;57.12;98233.09;7307648;19;129079;-35
2023/12/14 00:40:29;;;;;;;64.07;3.15;;;;;;;20.60;57.13;98236.88;7307131;19;130029;-36
2023/12/14 00:42:54;;;;;;;65.90;3.47;;;;;;;20.49;57.95;98233.81;7309824;19;129892;-36
2023/12/14 00:45:19;;;;;;;152.50;6.13;;;;;;;20.46;58.12;98242.75;7307290;19;129193;-37
2023/12/14 00:47:45;;;;;;;56.08;2.97;;;;;;;20.40;58.44;98250.44;7309303;19;129618;-35
2023/12/14 00:50:10;;;;;;;110.70;4.55;;;;;;;20.37;58.61;98248.16;7306671;19;130130;-36
2023/12/14 00:52:36;;;;;;;76.15;3.55;;;;;;;20.27;59.06;98260.56;7307273;19;129769;-35
2023/12/14 00:55:01;;;;;;;115.07;4.95;;;;;;;20.25;58.61;98258.13;7309953;19;129248;-37
2023/12/14 00:57:26;;;;;;;110.38;5.18;;;;;;;20.17;59.05;98259.91;7306116;19;129045;-37
2023/12/14 00:59:52;;;;;;;54.13;2.95;;;;;;;20.20;58.66;98275.22;7305835;19;129559;-37
2023/12/14 01:02:17;;;;;;;83.90;3.85;;;;;;;20.15;58.90;98274.91;7310429;19;129580;-37
2023/12/14 01:04:43;;;;;;;131.63;5.50;;;;;;;20.10;59.00;98279.75;7315681;19;129414;-36
2023/12/14 01:07:08;;;;;;;53.17;2.75;;;;;;;20.05;59.53;98272.44;7316170;19;130637;-38
2023/12/14 01:09:34;;;;;;;70.20;3.33;;;;;;;20.04;59.21;98275.19;7311906;19;130651;-36
2023/12/14 01:11:59;;;;;;;72.22;3.47;;;;;;;20.03;59.67;98274.38;7315890;19;129700;-36
2023/12/14 01:14:24;;;;;;;107.82;4.55;;;;;;;20.02;59.87;98277.16;7313133;19;129198;-37
2023/12/14 01:16:50;;;;;;;78.22;3.95;;;;;;;19.86;59.26;98262.31;7315928;19;129701;-37
2023/12/14 01:19:15;;;;;;;120.80;5.28;;;;;;;19.94;59.56;98288.41;7312534;19;130127;-37
2023/12/14 01:21:40;;;;;;;120.80;4.90;;;;;;;19.96;59.86;98293.44;7314416;19;129811;-37
2023/12/14 01:24:06;;;;;;;56.90;3.17;;;;;;;19.92;59.62;98290.34;7317212;19;129412;-35
2023/12/14 01:26:31;;;;;;;74.20;3.38;;;;;;;19.76;59.48;98272.06;7316220;19;130172;-36
2023/12/14 01:28:56;;;;;;;29.80;2.03;;;;;;;19.90;59.52;98289.69;7313628;19;130235;-37
2023/12/14 01:31:24;;;;;;;136.85;5.57;;;;;;;19.90;59.66;98299.31;7314279;19;130324;-37
2023/12/14 01:33:50;;;;;;;47.00;2.95;;;;;;;19.90;59.79;98299.31;7314623;19;129993;-37
2023/12/14 01:36:23;;;;;;;55.47;3.00;;;;;;;19.87;59.99;98299.63;7314919;19;129032;-37
2023/12/14 01:38:49;;;;;;;46.97;2.72;;;;;;;19.88;59.80;98303.88;7313868;19;131170;-36
2023/12/14 01:41:14;;;;;;;89.70;4.07;;;;;;;19.87;60.08;98303.06;7314711;19;130417;-37
2023/12/14 01:43:40;;;;;;;28.25;2.00;;;;;;;19.84;60.07;98302.53;7313699;19;128932;-36
2023/12/14 01:46:05;;;;;;;51.50;2.53;;;;;;;19.82;59.97;98312.31;7314960;19;129583;-37
2023/12/14 01:48:30;;;;;;;122.65;5.18;;;;;;;19.82;60.40;98309.72;7313411;19;129924;-37
2023/12/14 01:50:56;;;;;;;137.13;5.68;;;;;;;19.79;60.01;98312.63;7314287;19;130192;-37
2023/12/14 01:53:21;;;;;;;85.15;3.88;;;;;;;19.77;60.02;98314.59;7311818;19;129219;-38
2023/12/14 01:55:47;;;;;;;71.60;3.67;;;;;;;19.77;60.79;98315.41;7313961;19;129327;-38
2023/12/14 01:58:12;;;;;;;94.10;4.18;;;;;;;19.75;60.24;98317.34;7313375;19;130151;-37
2023/12/14 02:00:52;;;;;;;155.30;6.30;;;;;;;19.77;60.50;98322.41;7311367;19;129714;-36
2023/12/14 02:03:17;;;;;;;99.78;4.45;;;;;;;19.74;60.21;98327.94;7314955;19;129365;-37
2023/12/14 02:05:42;;;;;;;68.22;3.22;;;;;;;19.71;60.52;98331.69;7313068;19;129887;-37
2023/12/14 02:08:08;;;;;;;48.35;2.70;;;;;;;19.72;60.33;98343.75;7312801;19;129259;-37
2023/12/14 02:10:34;;;;;;;132.35;5.63;;;;;;;19.73;60.75;98334.16;7311393;19;130523;-37
2023/12/14 02:13:01;;;;;;;65.75;3.45;;;;;;;19.73;60.43;98336.75;7313465;19;128671;-37
2023/12/14 02:15:27;;;;;;;87.43;4.20;;;;;;;19.77;60.95;98341.50;7313961;19;129002;-38
2023/12/14 02:17:52;;;;;;;62.08;3.08;;;;;;;19.78;60.86;98337.09;7311731;19;130198;-37
2023/12/14 02:20:17;;;;;;;99.38;4.43;;;;;;;19.78;60.58;98342.31;7311602;19;129296;-35
2023/12/14 02:22:54;;;;;;;82.72;3.92;;;;;;;19.80;61.48;98337.75;7314567;19;130085;-37
2023/12/14 02:25:20;;;;;;;57.03;3.05;;;;;;;19.81;60.97;98342.81;7314963;19;129633;-36
2023/12/14 02:27:47;;;;;;;86.93;3.85;;;;;;;19.83;61.00;98342.66;7311336;19;129504;-37
2023/12/14 02:30:13;;;;;;;119.78;5.03;;;;;;;19.84;60.78;98344.28;7309265;19;131517;-37
2023/12/14 02:32:39;;;;;;;118.20;5.13;;;;;;;19.85;60.58;98349.31;7314129;19;129111;-37
2023/12/14 02:35:06;;;;;;;52.72;2.72;;;;;;;19.88;60.29;98353.44;7313776;19;129090;-36
2023/12/14 02:37:32;;;;;;;111.40;5.10;;;;;;;19.92;60.11;98350.34;7312548;19;130101;-38
2023/12/14 02:39:57;;;;;;;78.83;3.70;;;;;;;19.88;60.46;98356.88;7309429;19;130202;-37
2023/12/14 02:42:23;;;;;;;116.18;5.20;;;;;;;19.86;60.26;98363.19;7313454;19;129170;-35
2023/12/14 02:44:50;;;;;;;73.20;3.80;;;;;;;19.83;60.56;98361.75;7312877;19;129063;-37
2023/12/14 02:47:15;;;;;;;60.30;3.17;;;;;;;19.82;60.65;98354.03;7311893;19;130233;-37
2023/12/14 02:49:41;;;;;;;142.77;5.75;;;;;;;19.80;60.34;98359.41;7310245;19;131560;-37
2023/12/14 02:52:06;;;;;;;98.60;4.53;;;;;;;19.65;60.85;98336.72;7311163;19;128877;-35
2023/12/14 02:54:31;;;;;;;183.15;7.68;;;;;;;19.74;60.79;98360.06;7309268;19;129832;-35
2023/12/14 02:56:57;;;;;;;87.95;4.25;;;;;;;19.72;60.55;98361.22;7312296;19;130775;-36
2023/12/14 02:59:22;;;;;;;149.20;5.85;;;;;;;19.72;60.36;98367.22;7310874;19;130287;-37
2023/12/14 03:01:47;;;;;;;154.30;6.32;;;;;;;19.72;60.41;98371.63;7311824;19;129319;-37
2023/12/14 03:04:13;;;;;;;65.95;3.28;;;;;;;19.72;60.93;98375.03;7312887;19;129304;-37
2023/12/14 03:06:38;;;;;;;75.38;3.30;;;;;;;19.72;60.36;98382.06;7311660;19;130057;-37
2023/12/14 03:09:03;;;;;;;139.48;5.68;;;;;;;19.72;60.73;98384.69;7309535;19;130293;-36
2023/12/14 03:11:29;;;;;;;80.35;3.58;;;;;;;19.59;60.75;98366.00;7312821;19;130852;-37
2023/12/14 03:13:54;;;;;;;72.95;3.72;;;;;;;19.71;60.31;98386.47;7308825;19;129457;-35
2023/12/14 03:16:20;;;;;;;72.85;3.60;;;;;;;19.70;60.30;98384.00;7310553;19;130267;-36
2023/12/14 03:18:45;;;;;;;85.53;3.85;;;;;;;19.72;60.59;98393.28;7310997;19;130439;-37
2023/12/14 03:21:10;;;;;;;64.63;3.13;;;;;;;19.73;60.80;98396.72;7312148;19;129456;-37
2023/12/14 03:23:36;;;;;;;58.03;3.05;;;;;;;19.73;60.81;98394.13;7311370;19;129048;-38
2023/12/14 03:26:02;;;;;;;82.70;3.63;;;;;;;19.77;60.28;98398.03;7307902;19;130077;-38
2023/12/14 03:28:27;;;;;;;139.77;5.68;;;;;;;19.73;60.40;98397.56;7310142;19;130320;-35
2023/12/14 03:30:53;;;;;;;62.10;3.15;;;;;;;19.75;60.52;98400.78;7311539;19;129104;-37
2023/12/14 03:33:19;;;;;;;26.70;2.10;;;;;;;19.73;60.53;98404.56;7309071;19;130290;-36
2023/12/14 03:35:46;;;;;;;149.50;6.22;;;;;;;19.73;60.48;98399.34;7309567;19;130108;-36
2023/12/14 03:38:13;;;;;;;81.35;3.80;;;;;;;19.79;60.21;98417.78;7311340;19;130373;-36
2023/12/14 03:40:38;;;;;;;;;;;;;;;19.77;60.41;98411.91;7310061;19;128728;-37
2023/12/14 03:43:04;;;;;;;85.40;4.17;;;;;;;19.79;60.54;98416.94;7310799;19;129601;-37
2023/12/14 03:45:29;;;;;;;127.60;5.22;;;;;;;19.80;60.48;98423.81;7310591;19;130145;-37
2023/12/14 03:47:55;;;;;;;71.10;3.40;;;;;;;19.69;60.40;98405.81;7308854;19;130350;-38
2023/12/14 03:50:20;;;;;;;58.92;3.20;;;;;;;19.85;59.88;98432.78;7309277;19;129100;-36
2023/12/14 03:52:46;;;;;;;87.88;4.00;;;;;;;19.85;59.91;98437.22;7304975;19;131091;-37
2023/12/14 03:55:11;;;;;;;101.40;4.30;;;;;;;19.80;59.89;98442.06;7307919;19;130118;-38
2023/12/14 03:57:37;;;;;;;167.75;6.80;;;;;;;19.83;60.04;98449.56;7310903;19;130418;-38
2023/12/14 04:00:03;;;;;;;49.88;2.55;;;;;;;19.77;60.17;98445.78;7309280;19;129793;-37
2023/12/14 04:02:28;;;;;;;25.95;2.17;;;;;;;19.79;60.43;98453.47;7311698;19;128985;-37
2023/12/14 04:04:54;;;;;;;131.68;5.38;;;;;;;19.79;60.58;98458.69;7311251;19;131681;-37
2023/12/14 04:07:19;;;;;;;75.05;3.78;;;;;;;19.81;60.59;98462.78;7311442;19;130879;-37
2023/12/14 04:09:45;;;;;;;120.03;5.03;;;;;;;19.77;60.09;98460.63;7307378;19;129722;-37
2023/12/14 04:12:11;;;;;;;61.27;3.00;;;;;;;19.76;60.70;98467.63;7310826;19;129166;-38
2023/12/14 04:14:36;;;;;;;123.85;5.30;;;;;;;19.78;60.43;98467.47;7307769;19;130031;-36
2023/12/14 04:17:02;;;;;;;73.78;3.75;;;;;;;19.76;60.10;98465.03;7311985;19;130367;-38
2023/12/14 04:19:27;;;;;;;80.53;3.58;;;;;;;19.74;60.50;98471.38;7308520;19;130124;-36
2023/12/14 04:21:52;;;;;;;88.55;3.88;;;;;;;19.74;60.35;98472.19;7308779;19;129042;-36
2023/12/14 04:24:18;;;;;;;110.85;4.68;;;;;;;19.74;60.55;98466.16;7310794;19;130851;-38
2023/12/14 04:26:43;;;;;;;76.68;3.45;;;;;;;19.74;60.92;98477.41;7311190;19;129648;-38
2023/12/14 04:29:08;;;;;;;51.75;3.22;;;;;;;19.76;60.25;98469.41;7308654;19;129584;-36
2023/12/14 04:31:34;;;;;;;118.60;4.97;;;;;;;19.76;60.28;98469.41;7308120;19;129870;-37
2023/12/14 04:34:00;;;;;;;68.78;3.47;;;;;;;19.63;60.78;98450.78;7309194;19;130142;-37
2023/12/14 04:36:25;;;;;;;44.53;2.45;;;;;;;19.75;60.74;98473.81;7311107;19;130919;-36
2023/12/14 04:38:50;;;;;;;94.30;4.20;;;;;;;19.75;60.37;98479.03;7314100;19;131091;-37
2023/12/14 04:41:16;;;;;;;131.40;5.47;;;;;;;19.75;60.83;98484.25;7316869;19;129371;-35
2023/12/14 04:43:41;;;;;;;85.55;3.92;;;;;;;19.73;60.23;98488.81;7316214;19;131024;-38
2023/12/14 04:46:06;;;;;;;49.17;2.70;;;;;;;19.76;60.43;98492.88;7316852;19;129971;-36
2023/12/14 04:48:32;;;;;;;52.72;2.70;;;;;;;19.73;60.46;98491.44;7315164;19;130722;-38
2023/12/14 04:50:57;;;;;;;160.88;6.40;;;;;;;19.72;60.49;98502.81;7315548;19;129849;-37
2023/12/14 04:53:23;;;;;;;91.60;4.18;;;;;;;19.70;60.11;98501.34;7315885;19;130570;-37
2023/12/14 04:55:48;;;;;;;75.47;3.67;;;;;;;19.71;60.39;98510.78;7314194;19;131566;-37
2023/12/14 04:58:13;;;;;;;76.18;3.63;;;;;;;19.70;60.80;98517.00;7315402;19;129649;-37
2023/12/14 05:00:39;;;;;;;154.93;6.30;;;;;;;19.70;60.69;98527.41;7313714;19;129116;-36
2023/12/14 05:03:04;;;;;;;99.53;4.35;;;;;;;19.71;60.66;98532.47;7315932;19;129817;-37
2023/12/14 05:05:29;;;;;;;87.25;3.88;;;;;;;19.67;60.64;98528.53;7315282;19;129844;-38
2023/12/14 05:07:55;;;;;;;97.65;4.43;;;;;;;19.71;60.58;98539.47;7313400;19;129419;-35
2023/12/14 05:10:20;;;;;;;86.55;4.15;;;;;;;19.73;60.47;98547.97;7313783;19;129004;-37
2023/12/14 05:12:45;;;;;;;74.82;3.60;;;;;;;19.71;60.86;98547.28;7315952;19;129584;-37
2023/12/14 05:15:11;;;;;;;69.10;3.47;;;;;;;19.54;60.98;98527.28;7313388;19;129401;-38
2023/12/14 05:17:36;;;;;;;160.13;6.60;;;;;;;19.68;60.25;98555.44;7312856;19;129639;-36
2023/12/14 05:20:04;;;;;;;65.50;3.10;;;;;;;19.69;60.42;98557.06;7315084;19;130333;-37
2023/12/14 05:22:29;;;;;;;73.32;3.65;;;;;;;19.68;60.92;98561.47;7316133;19;130742;-37
2023/12/14 05:24:54;;;;;;;53.35;2.78;;;;;;;19.68;61.40;98571.06;7314726;19;131432;-35
2023/12/14 05:27:20;;;;;;;154.98;6.68;;;;;;;19.70;60.59;98579.56;7315387;19;129063;-36
2023/12/14 05:29:45;;;;;;;77.38;4.03;;;;;;;19.68;60.71;98577.13;7314088;19;129577;-35
2023/12/14 05:32:10;;;;;;;48.63;2.60;;;;;;;19.68;60.42;98577.13;7313537;19;129847;-37
2023/12/14 05:34:36;;;;;;;72.55;3.67;;;;;;;19.68;60.76;98584.09;7313149;19;132563;-37
2023/12/14 05:37:02;;;;;;;170.82;7.10;;;;;;;19.58;60.72;98567.72;7314381;19;129613;-37
2023/12/14 05:39:27;;;;;;;92.75;4.47;;;;;;;19.70;60.84;98584.78;7313864;19;128878;-37
2023/12/14 05:41:52;;;;;;;79.47;3.70;;;;;;;19.68;60.46;98597.16;7314015;19;130245;-37
2023/12/14 05:44:18;;;;;;;58.63;2.92;;;;;;;19.67;60.55;98601.53;7314427;19;130348;-36
2023/12/14 05:46:43;;;;;;;128.40;5.13;;;;;;;19.67;60.45;98608.56;7315899;19;129198;-37
2023/12/14 05:49:08;;;;;;;73.60;3.55;;;;;;;19.68;60.27;98610.19;7312155;19;128616;-35
2023/12/14 05:51:34;;;;;;;81.53;3.70;;;;;;;19.68;60.41;98610.19;7308540;19;130224;-40
2023/12/14 05:54:00;;;;;;;112.60;4.65;;;;;;;19.67;60.38;98611.16;7312393;19;130633;-38
2023/12/14 05:56:26;;;;;;;95.18;4.20;;;;;;;19.67;60.69;98622.41;7314583;19;129129;-38
2023/12/14 05:58:51;;;;;;;88.70;4.10;;;;;;;19.65;60.66;98621.72;7313265;19;129019;-38
2023/12/14 06:01:19;;;;;;;72.00;3.72;;;;;;;19.53;60.58;98606.47;7311637;19;130807;-38
2023/12/14 06:03:45;;;;;;;133.20;5.57;;;;;;;19.67;60.57;98626.81;7309207;19;130421;-39
2023/12/14 06:06:13;;;;;;;138.27;6.10;;;;;;;19.66;60.19;98639.03;7313292;19;129129;-37
2023/12/14 06:08:38;;;;;;;62.38;3.42;;;;;;;19.65;60.25;98654.81;7311594;19;130395;-35
2023/12/14 06:11:05;;;;;;;66.15;3.65;;;;;;;19.65;60.56;98653.00;7309674;19;130327;-39
2023/12/14 06:13:31;;;;;;;143.50;6.30;;;;;;;19.58;60.27;98638.13;7310408;19;130368;-37
2023/12/14 06:15:56;;;;;;;130.63;5.57;;;;;;;19.69;60.24;98661.34;7311689;19;130186;-37
2023/12/14 06:18:22;;;;;;;64.90;3.33;;;;;;;19.66;60.57;98659.06;7312387;19;129036;-39
2023/12/14 06:20:47;;;;;;;133.32;6.25;;;;;;;19.67;60.20;98665.91;7308438;19;130071;-39
2023/12/14 06:23:12;;;;;;;99.90;4.72;;;;;;;19.67;60.03;98665.91;7312192;19;129148;-39
2023/12/14 06:25:37;;;;;;;50.92;3.33;;;;;;;19.67;59.62;98674.53;7309256;19;130546;-38
2023/12/14 06:28:03;;;;;;;72.05;4.18;;;;;;;19.67;60.32;98674.53;7310818;19;129131;-38
2023/12/14 06:30:28;;;;;;;54.10;3.28;;;;;;;19.67;60.04;98678.97;7308578;19;130700;-39
2023/12/14 06:32:53;;;;;;;166.13;7.10;;;;;;;19.68;60.11;98675.38;7312558;19;129766;-37
2023/12/14 06:35:19;;;;;;;39.88;3.22;;;;;;;19.66;60.11;98687.72;7308994;19;129423;-39
2023/12/14 06:37:44;;;;;;;85.13;4.38;;;;;;;19.68;60.21;98691.00;7311052;19;129680;-39
2023/12/14 06:40:10;;;;;;;66.55;3.92;;;;;;;19.67;60.10;98694.59;7310634;19;130344;-40
2023/12/14 06:42:36;;;;;;;172.17;7.30;;;;;;;19.67;60.39;98699.81;7309251;19;131328;-35
2023/12/14 06:45:04;;;;;;;99.72;4.95;;;;;;;19.65;60.79;98707.75;7309764;19;129170;-37
2023/12/14 06:47:30;;;;;;;137.93;6.78;;;;;;;19.50;59.99;98683.19;7311750;19;129546;-37
2023/12/14 06:49:56;;;;;;;79.45;4.25;;;;;;;19.67;60.33;98710.25;7308609;19;129679;-38
2023/12/14 06:52:22;;;;;;;144.70;6.28;;;;;;;19.65;60.02;98720.00;7311684;19;130318;-37
2023/12/14 06:54:48;;;;;;;105.30;5.20;;;;;;;19.64;60.53;98720.94;7312465;19;128965;-37
2023/12/14 06:57:16;;;;;;;47.85;3.05;;;;;;;19.64;60.66;98727.00;7310749;19;129614;-38
2023/12/14 06:59:42;;;;;;;77.35;4.10;;;;;;;19.65;60.28;98735.66;7305821;19;129848;-37
2023/12/14 07:02:07;;;;;;;120.85;5.45;;;;;;;19.67;60.11;98736.31;7312708;19;130490;-39
2023/12/14 07:04:32;;;;;;;83.18;4.55;;;;;;;19.67;60.12;98736.31;7313178;19;129227;-38
2023/12/14 07:06:58;;;;;;;84.80;4.35;;;;;;;19.63;60.01;98741.00;7313060;19;129359;-38
2023/12/14 07:09:24;;;;;;;98.45;5.10;;;;;;;19.65;60.09;98743.47;7309946;19;130997;-37
2023/12/14 07:11:50;;;;;;;154.73;6.53;;;;;;;19.65;60.75;98748.69;7311302;19;129646;-37
2023/12/14 07:14:15;;;;;;;41.67;2.95;;;;;;;19.64;60.54;98763.50;7312041;19;129155;-38
2023/12/14 07:16:41;;;;;;;54.50;3.22;;;;;;;19.48;60.53;98742.47;7312224;19;130097;-38
2023/12/14 07:19:06;;;;;;;157.87;6.73;;;;;;;19.63;60.08;98771.47;7310902;19;130096;-36
2023/12/14 07:21:32;;;;;;;130.85;5.70;;;;;;;19.64;60.11;98783.53;7310449;19;130295;-36
2023/12/14 07:23:58;;;;;;;93.72;5.13;;;;;;;19.67;60.37;98778.84;7312293;19;129498;-38
2023/12/14 07:26:24;;;;;;;54.05;3.40;;;;;;;19.84;59.67;98785.88;7295514;19;130724;-38
2023/12/14 07:28:49;;;;;;;117.60;5.68;;;;;;;19.97;59.21;98764.63;7310068;19;130299;-39
2023/12/14 07:31:15;;;;;;;78.07;4.47;;;;;;;20.40;58.37;98801.25;7312379;19;130413;-35
2023/12/14 07:33:40;;;;;;;128.05;5.75;;;;;;;20.71;57.53;98776.31;7307989;19;129899;-37
2023/12/14 07:36:06;;;;;;;64.45;3.53;;;;;;;21.10;56.97;98803.72;7310262;19;128974;-37
2023/12/14 07:38:31;;;;;;;137.02;5.85;;;;;;;21.43;55.59;98797.66;7309365;19;130033;-38
2023/12/14 07:40:57;;;;;;;60.80;3.50;;;;;;;22.04;54.56;98807.00;7310409;19;129660;-38
2023/12/14 07:43:23;;;;;;;93.40;4.93;;;;;;;22.07;54.17;98793.56;7310632;19;129052;-38
2023/12/14 07:45:48;;;;;;;107.60;5.10;;;;;;;22.31;53.55;98815.38;7307857;19;129029;-39
2023/12/14 07:48:14;;;;;;;161.70;7.05;;;;;;;22.33;53.19;98817.84;7308685;19;129768;-38
2023/12/14 07:50:39;;;;;;;173.30;7.68;;;;;;;22.43;53.15;98832.38;7306971;19;130632;-38
2023/12/14 07:53:04;;;;;;;58.63;3.53;;;;;;;22.80;52.20;98839.78;7310715;19;129758;-37
2023/12/14 07:55:30;;;;;;;80.47;4.20;;;;;;;22.76;52.77;98830.59;7306180;19;129881;-38
2023/12/14 07:57:56;;;;;;;136.63;5.90;;;;;;;22.86;52.36;98845.19;7309173;19;130305;-38
2023/12/14 08:00:21;;;;;;;63.67;3.47;;;;;;;23.03;52.45;98856.47;7307815;19;130410;-38
2023/12/14 08:02:47;;;;;;;69.60;3.80;;;;;;;23.06;51.24;98851.72;7310733;19;129960;-37
2023/12/14 08:05:12;;;;;;;97.40;4.80;;;;;;;23.07;51.41;98836.81;7310747;19;129025;-38
2023/12/14 08:07:37;;;;;;;78.10;3.95;;;;;;;23.27;51.46;98858.25;7308953;19;129080;-38
2023/12/14 08:10:03;;;;;;;53.30;3.33;;;;;;;23.35;50.82;98860.84;7309340;19;129741;-38
2023/12/14 08:12:28;;;;;;;24.38;2.67;;;;;;;23.46;50.64;98858.69;7315365;19;129043;-38
2023/12/14 08:14:54;;;;;;;149.30;7.43;;;;;;;22.97;48.40;98844.81;7315411;19;130165;-38
2023/12/14 08:17:20;;;;;;;146.60;7.77;;;;;;;23.17;48.53;98869.69;7316747;19;130946;-37
2023/12/14 08:19:46;;;;;;;71.00;4.30;;;;;;;23.13;49.93;98875.44;7314443;19;130846;-37
2023/12/14 08:22:12;;;;;;;51.97;3.42;;;;;;;23.11;50.77;98878.25;7317222;19;128957;-38
2023/12/14 08:24:41;;;;;;;142.00;6.60;;;;;;;23.12;50.30;98881.69;7316919;19;128848;-37
2023/12/14 08:27:06;;;;;;;106.35;5.78;;;;;;;23.20;50.48;98886.91;7317793;19;129976;-38
2023/12/14 08:29:31;;;;;;;78.63;4.47;;;;;;;23.35;50.13;98889.69;7313582;19;131060;-36
2023/12/14 08:31:58;;;;;;;101.27;5.37;;;;;;;23.32;49.96;98867.22;7315993;19;129313;-37
2023/12/14 08:34:25;;;;;;;129.95;6.10;;;;;;;23.59;50.00;98895.69;7315832;19;128968;-37
2023/12/14 08:36:50;;;;;;;84.40;4.82;;;;;;;23.73;49.12;98899.41;7317737;19;130235;-38
2023/12/14 08:39:15;;;;;;;66.93;4.13;;;;;;;23.70;49.39;98903.19;7315757;19;131019;-35
2023/12/14 08:41:41;;;;;;;19.90;2.37;;;;;;;23.86;49.54;98905.78;7315499;19;129036;-38
2023/12/14 08:44:07;;;;;;;147.50;6.68;;;;;;;23.84;49.24;98910.38;7316495;19;129362;-38
2023/12/14 08:46:44;;;;;;;90.38;5.07;;;;;;;23.98;49.33;98917.53;7316881;19;129404;-38
2023/12/14 08:49:10;;;;;;;;;;;;;;;23.85;48.65;98893.63;7316499;19;131147;-38
2023/12/14 08:51:36;;;;;;;97.70;4.82;;;;;;;24.23;48.36;98932.19;7315881;19;129625;-37
2023/12/14 08:54:01;;;;;;;86.90;5.17;;;;;;;24.22;48.93;98941.06;7314371;19;129257;-38
2023/12/14 08:56:26;;;;;;;141.67;6.33;;;;;;;24.14;48.43;98942.91;7316460;19;130125;-37
2023/12/14 08:58:52;;;;;;;82.35;5.13;;;;;;;24.25;48.64;98945.97;7315003;19;130357;-38
2023/12/14 09:01:21;;;;;;;75.80;4.37;;;;;;;24.27;47.84;98949.25;7317231;19;129435;-38
2023/12/14 09:03:47;;;;;;;170.65;7.50;;;;;;;24.16;48.32;98952.25;7314648;19;128942;-39
2023/12/14 09:06:12;;;;;;;84.73;4.63;;;;;;;24.35;48.57;98964.16;7317709;19;129022;-38
2023/12/14 09:08:37;;;;;;;46.83;3.23;;;;;;;24.38;48.22;98967.25;7315219;19;129605;-38
2023/12/14 09:11:03;;;;;;;83.70;4.53;;;;;;;24.47;47.85;98973.28;7315842;19;129073;-39
2023/12/14 09:13:29;;;;;;;150.77;6.40;;;;;;;24.59;47.80;98971.91;7314444;19;130579;-39
2023/12/14 09:15:54;;;;;;;318.58;13.15;;;;;;;24.48;47.75;98978.38;7309356;19;130356;-37
2023/12/14 09:18:21;;;;;;;69.20;3.77;;;;;;;24.19;48.09;98983.44;7314012;19;131205;-38
2023/12/14 09:20:49;;;;;;;84.55;4.45;;;;;;;24.14;48.80;98975.25;7315567;19;128968;-38
2023/12/14 09:23:15;;;;;;;138.30;6.28;;;;;;;23.78;49.43;98986.34;7312558;19;128929;-38
2023/12/14 09:25:40;;;;;;;129.50;5.97;;;;;;;23.44;48.99;98981.31;7311880;19;130129;-38
2023/12/14 09:28:05;;;;;;;84.23;4.57;;;;;;;23.33;46.23;98991.34;7313371;19;129606;-38
2023/12/14 09:30:31;;;;;;;93.32;5.03;;;;;;;23.31;46.57;98988.88;7310451;19;128944;-38
2023/12/14 09:32:56;;;;;;;155.80;6.97;;;;;;;23.32;46.32;99003.63;7312000;19;128868;-39
2023/12/14 09:35:21;;;;;;;57.58;3.63;;;;;;;23.16;47.07;98983.47;7312166;19;130084;-39
2023/12/14 09:37:47;;;;;;;99.97;4.93;;;;;;;23.42;46.16;99011.34;7310827;19;130409;-38
2023/12/14 09:40:12;;;;;;;42.83;3.17;;;;;;;23.33;46.54;98986.09;7312741;19;129217;-38
2023/12/14 09:42:39;;;;;;;133.68;5.95;;;;;;;23.31;46.24;98991.50;7315715;19;128971;-39
2023/12/14 09:45:07;;;;;;;92.25;4.80;;;;;;;23.54;45.93;99017.88;7314635;19;130261;-39
2023/12/14 09:47:32;;;;;;;100.47;5.03;;;;;;;23.62;45.37;99020.50;7314546;19;131210;-39
2023/12/14 09:49:59;;;;;;;91.00;4.80;;;;;;;23.65;45.70;99034.09;7312188;19;129098;-40
2023/12/14 09:52:25;;;;;;;123.07;5.47;;;;;;;24.00;46.44;99025.84;7315830;19;129429;-38
2023/12/14 09:54:50;;;;;;;69.93;4.00;;;;;;;24.22;46.51;99035.63;7313687;19;131710;-41
2023/12/14 09:57:18;;;;;;;63.65;3.63;;;;;;;24.42;46.41;99036.88;7314630;19;131223;-39
2023/12/14 09:59:51;;;;;;;106.57;4.75;;;;;;;24.50;45.62;99041.25;7311870;19;129603;-36
2023/12/14 10:02:16;;;;;;;161.27;6.68;;;;;;;24.53;46.22;99038.28;7313069;19;128960;-38
2023/12/14 10:04:43;;;;;;;71.20;4.03;;;;;;;24.61;45.94;99051.38;7315268;19;130552;-39
2023/12/14 10:07:08;;;;;;;185.05;7.65;;;;;;;24.75;46.31;99048.06;7312473;19;130589;-38
2023/12/14 10:09:37;;;;;;;60.87;3.50;;;;;;;24.79;45.88;99048.53;7312331;19;130319;-38
2023/12/14 10:12:07;;;;;;;148.98;6.47;;;;;;;24.92;46.24;99054.88;7313465;19;128902;-39
2023/12/14 10:14:33;;;;;;;66.28;3.55;;;;;;;24.74;46.31;99051.69;7315852;19;130146;-40
2023/12/14 10:17:13;;;;;;;136.63;6.00;;;;;;;24.77;47.04;99048.72;7314136;19;130308;-40
2023/12/14 10:19:43;;;;;;;55.53;3.15;;;;;;;24.60;46.68;99059.44;7312653;19;129006;-40
2023/12/14 10:22:08;;;;;;;90.15;4.38;;;;;;;24.37;47.21;99065.47;7314238;19;129307;-39
2023/12/14 10:24:34;;;;;;;167.07;7.00;;;;;;;24.27;47.93;99072.72;7313750;19;130159;-38
2023/12/14 10:27:00;;;;;;;97.90;4.68;;;;;;;24.19;48.31;99062.25;7314931;19;130278;-40
2023/12/14 10:29:26;;;;;;;15.53;1.97;;;;;;;24.19;48.78;99064.88;7313274;19;130065;-37
2023/12/14 10:31:52;;;;;;;25.77;1.97;;;;;;;24.14;48.36;99063.75;7314412;19;129100;-38
2023/12/14 10:34:17;;;;;;;180.77;7.10;;;;;;;24.23;48.21;99074.03;7309838;19;130520;-35
2023/12/14 10:36:46;;;;;;;55.17;3.13;;;;;;;24.31;48.70;99068.75;7314389;19;130443;-40
2023/12/14 10:39:18;;;;;;;120.45;5.43;;;;;;;24.48;48.44;99078.22;7311091;19;129267;-40
2023/12/14 10:41:48;;;;;;;49.50;2.80;;;;;;;24.57;48.05;99076.38;7313770;19;129037;-40
2023/12/14 10:44:15;;;;;;;133.15;5.97;;;;;;;24.68;47.41;99076.03;7313427;19;131373;-39
2023/12/14 10:46:41;;;;;;;;;;;;;;;24.56;48.43;99081.81;7312353;19;130449;-36
2023/12/14 10:49:07;;;;;;;112.00;5.10;;;;;;;24.52;47.75;99064.72;7312518;19;129288;-38
2023/12/14 10:51:34;;;;;;;55.83;3.07;;;;;;;24.70;47.83;99086.38;7313568;19;129324;-37
2023/12/14 10:54:00;;;;;;;135.27;5.63;;;;;;;24.72;47.60;99095.75;7312340;19;130983;-38
2023/12/14 10:56:26;;;;;;;94.77;4.13;;;;;;;24.94;47.46;99105.47;7312837;19;130402;-40
2023/12/14 10:58:53;;;;;;;53.40;3.20;;;;;;;25.00;47.13;99109.22;7312090;19;129364;-40
2023/12/14 11:01:21;;;;;;;76.15;3.58;;;;;;;24.94;47.73;99107.28;7312205;19;129152;-38
2023/12/14 11:03:49;;;;;;;98.50;4.63;;;;;;;24.99;47.54;99113.66;7312537;19;130262;-39
2023/12/14 11:06:24;;;;;;;124.45;5.30;;;;;;;25.05;47.34;99122.69;7311775;19;131657;-38
2023/12/14 11:08:52;;;;;;;72.85;3.67;;;;;;;25.15;47.26;99118.00;7309822;19;129926;-38